createdAt,value
2023-03-22T00:01:30.662Z,31.94
2023-03-22T00:05:31.111Z,31.95
2023-03-22T00:56:26.665Z,33.15
2023-03-22T01:00:27.748Z,31.99
2023-03-22T01:04:27.936Z,31.82
2023-03-22T01:08:28.142Z,31.82
2023-03-22T01:12:28.389Z,31.77
2023-03-22T01:16:28.636Z,31.78
2023-03-22T03:08:38.360Z,31.42
2023-03-22T03:12:35.402Z,31.42
2023-03-22T03:16:36.213Z,31.38
2023-03-22T03:20:35.483Z,31.38
2023-03-22T03:24:35.458Z,31.41
2023-03-22T03:28:35.479Z,31.38
2023-03-22T03:32:36.185Z,31.40
2023-03-22T03:36:36.217Z,31.38
2023-03-22T03:40:36.177Z,31.34
2023-03-22T03:44:36.340Z,31.35
2023-03-22T04:52:42.891Z,31.18
2023-03-22T05:32:41.085Z,31.10
2023-03-22T05:36:41.107Z,31.09
2023-03-22T05:40:41.697Z,31.09
2023-03-22T05:44:41.479Z,31.08
2023-03-22T05:48:41.705Z,31.06
2023-03-22T05:52:41.934Z,31.08
2023-03-22T05:56:42.171Z,31.06
2023-03-22T08:08:45.532Z,32.47
2023-03-22T08:28:49.193Z,32.36
2023-03-22T08:32:46.486Z,32.33
2023-03-22T08:36:45.983Z,32.81
2023-03-22T09:32:45.982Z,32.82
2023-03-22T09:36:45.498Z,32.78
2023-03-22T09:40:45.499Z,32.68
2023-03-22T09:44:45.532Z,31.88
2023-03-22T09:48:48.332Z,31.45
2023-03-22T09:52:45.506Z,31.54
2023-03-22T09:56:45.548Z,31.02
2023-03-22T10:04:45.505Z,31.31
2023-03-22T10:08:46.255Z,31.07
2023-03-22T10:12:45.509Z,30.95
2023-03-22T10:16:45.172Z,30.91
2023-03-22T10:20:45.514Z,30.65
2023-03-22T10:24:45.537Z,30.45
2023-03-22T10:28:45.545Z,31.04
2023-03-22T10:32:57.146Z,31.11
2023-03-22T10:36:46.056Z,31.43
2023-03-22T10:40:46.024Z,31.55
2023-03-22T10:44:46.050Z,31.83
2023-03-22T10:48:45.557Z,31.52
2023-03-22T10:52:45.533Z,32.08
2023-03-22T10:56:46.322Z,32.03
2023-03-22T11:00:46.105Z,31.87
2023-03-22T11:04:45.562Z,32.04
2023-03-22T11:08:45.535Z,31.78
2023-03-22T11:12:45.541Z,32.02
2023-03-22T11:21:03.820Z,32.11
2023-03-22T11:25:04.802Z,32.24
2023-03-22T11:29:04.767Z,31.58
2023-03-22T11:33:04.306Z,27.78
2023-03-22T11:37:04.320Z,27.38
2023-03-22T11:41:03.784Z,27.22
2023-03-22T11:45:03.704Z,27.86
2023-03-22T11:49:03.877Z,27.13
2023-03-22T11:53:03.804Z,27.96
2023-03-22T11:57:03.837Z,28.25
2023-03-22T12:01:03.783Z,27.69
2023-03-22T12:05:03.810Z,27.99
2023-03-22T12:09:04.317Z,28.37
2023-03-22T12:13:03.793Z,28.27
2023-03-22T12:17:14.294Z,28.62
2023-03-22T12:21:03.319Z,28.41
2023-03-22T12:25:03.361Z,28.42
2023-03-22T12:29:03.001Z,28.20
2023-03-22T12:33:03.374Z,28.84
2023-03-22T12:37:03.359Z,29.44
2023-03-22T12:41:02.881Z,29.72
2023-03-22T12:45:05.533Z,29.93
2023-03-22T12:49:03.018Z,29.81
2023-03-22T12:53:02.321Z,29.95
2023-03-22T12:57:02.357Z,30.05
2023-03-22T13:01:02.397Z,30.02
2023-03-22T13:05:02.339Z,30.18
2023-03-22T13:09:01.759Z,30.52
2023-03-22T13:13:01.858Z,30.58
2023-03-22T13:17:01.889Z,30.72
2023-03-22T13:21:01.869Z,30.82
2023-03-22T13:25:01.340Z,31.07
2023-03-22T13:29:01.372Z,31.08
2023-03-22T13:33:01.427Z,31.23
2023-03-22T13:37:00.846Z,31.27
2023-03-22T13:41:00.843Z,31.26
2023-03-22T13:45:00.592Z,31.28
2023-03-22T13:49:01.157Z,31.15
2023-03-22T13:53:00.353Z,30.82
2023-03-22T13:57:00.352Z,30.93
2023-03-22T14:01:00.448Z,31.05
2023-03-22T14:05:00.355Z,31.22
2023-03-22T14:09:00.350Z,31.21
2023-03-22T14:13:00.356Z,31.25
2023-03-22T14:16:59.884Z,31.34
2023-03-22T15:08:57.968Z,31.56
2023-03-22T15:12:59.373Z,32.96
2023-03-22T15:16:59.376Z,34.73
2023-03-22T17:09:00.412Z,33.63
2023-03-22T17:13:00.665Z,33.62
2023-03-22T17:17:00.745Z,33.60
2023-03-22T17:21:00.852Z,33.60
2023-03-22T17:25:00.996Z,33.55
2023-03-22T17:29:01.130Z,33.49
2023-03-22T17:33:01.840Z,33.42
2023-03-22T17:37:01.326Z,33.48
2023-03-22T17:41:02.731Z,33.37
2023-03-22T17:45:01.598Z,33.19
2023-03-22T17:49:01.690Z,33.26
2023-03-22T17:53:01.816Z,33.26
2023-03-22T17:57:26.179Z,33.20
2023-03-22T18:01:01.453Z,33.23
2023-03-22T18:05:01.289Z,33.06
2023-03-22T18:09:01.351Z,33.17
2023-03-22T18:13:01.120Z,33.17
2023-03-22T18:17:01.119Z,33.15
2023-03-22T18:21:01.156Z,33.22
2023-03-22T18:25:00.997Z,33.17
2023-03-22T18:29:01.168Z,33.05
2023-03-22T18:33:06.160Z,33.06
2023-03-22T18:37:01.342Z,33.04
2023-03-22T18:41:31.545Z,33.03
2023-03-22T18:45:01.632Z,33.03
2023-03-22T18:49:01.033Z,32.97
2023-03-22T18:57:00.871Z,32.91
2023-03-22T19:01:00.910Z,32.95
2023-03-22T19:05:00.771Z,32.93
2023-03-22T19:09:00.736Z,32.96
2023-03-22T19:13:00.618Z,32.98
2023-03-22T19:17:00.609Z,32.95
2023-03-22T19:21:10.066Z,32.92
2023-03-22T19:25:00.536Z,32.98
2023-03-22T19:29:00.485Z,32.91
2023-03-22T19:33:24.283Z,32.87
2023-03-22T19:37:00.368Z,32.92
2023-03-22T19:41:38.711Z,32.84
2023-03-22T19:45:00.217Z,32.92
2023-03-22T19:49:00.180Z,32.83
2023-03-22T19:53:14.328Z,32.80
2023-03-22T19:57:00.053Z,32.84
2023-03-22T20:00:59.987Z,32.86
2023-03-22T20:05:02.874Z,32.83
2023-03-22T20:08:59.881Z,32.81
2023-03-22T20:12:59.810Z,32.84
2023-03-22T20:17:05.560Z,32.82
2023-03-22T20:20:59.711Z,32.79
2023-03-22T20:24:59.690Z,32.79
2023-03-22T20:28:59.619Z,32.73
2023-03-22T20:32:59.561Z,32.76
2023-03-22T20:36:59.512Z,32.71
2023-03-22T20:40:59.484Z,32.74
2023-03-22T20:44:59.402Z,32.68
2023-03-22T20:48:59.548Z,32.68
2023-03-22T20:52:59.491Z,32.71
2023-03-22T20:56:59.462Z,32.66
